createdAt,value
2022-09-26T00:01:29.222Z,3.40
2022-09-26T00:04:02.531Z,2.88
2022-09-26T00:06:29.968Z,3.45
2022-09-26T00:08:57.722Z,3.20
2022-09-26T00:11:27.726Z,4.10
2022-09-26T00:13:57.951Z,3.88
2022-09-26T00:16:25.816Z,3.33
2022-09-26T00:18:55.851Z,3.15
2022-09-26T00:21:24.478Z,3.20
2022-09-26T00:23:52.358Z,2.90
2022-09-26T00:26:22.300Z,3.08
2022-09-26T00:28:50.049Z,3.40
2022-09-26T00:31:29.926Z,3.50
2022-09-26T00:33:58.007Z,2.85
2022-09-26T00:36:37.563Z,2.78
2022-09-26T00:39:09.901Z,3.00
2022-09-26T00:41:39.003Z,3.08
2022-09-26T00:44:43.879Z,2.85
2022-09-26T00:47:37.273Z,2.63
2022-09-26T00:50:22.504Z,2.55
2022-09-26T00:52:58.838Z,2.75
2022-09-26T00:55:31.060Z,2.85
2022-09-26T00:58:24.858Z,2.10
2022-09-26T01:00:52.614Z,2.50
2022-09-26T01:03:21.001Z,2.42
2022-09-26T01:05:48.942Z,2.60
2022-09-26T01:08:25.879Z,2.47
2022-09-26T01:10:53.678Z,2.35
2022-09-26T01:13:22.314Z,2.28
2022-09-26T01:15:49.607Z,2.45
2022-09-26T01:18:17.052Z,2.47
2022-09-26T01:21:21.655Z,2.45
2022-09-26T01:24:27.004Z,2.38
2022-09-26T01:27:28.828Z,2.08
2022-09-26T01:30:07.528Z,2.40
2022-09-26T01:32:51.634Z,2.30
2022-09-26T01:35:27.971Z,2.00
2022-09-26T01:38:01.142Z,2.22
2022-09-26T01:40:53.107Z,2.00
2022-09-26T01:43:38.577Z,2.60
2022-09-26T01:46:08.862Z,2.20
2022-09-26T01:48:43.340Z,2.42
2022-09-26T01:51:22.665Z,2.15
2022-09-26T01:53:59.802Z,2.30
2022-09-26T01:56:30.584Z,1.92
2022-09-26T01:59:07.474Z,1.83
2022-09-26T02:01:41.157Z,2.10
2022-09-26T02:04:16.848Z,2.30
2022-09-26T02:06:57.324Z,2.28
2022-09-26T02:09:41.909Z,2.03
2022-09-26T02:12:13.868Z,2.22
2022-09-26T02:14:43.837Z,2.30
2022-09-26T02:17:17.317Z,2.22
2022-09-26T02:19:57.263Z,2.17
2022-09-26T02:22:31.062Z,1.90
2022-09-26T02:25:00.323Z,2.20
2022-09-26T02:27:28.534Z,2.22
2022-09-26T02:29:56.261Z,2.20
2022-09-26T02:32:33.645Z,2.10
2022-09-26T02:35:01.880Z,1.83
2022-09-26T02:37:32.589Z,2.20
2022-09-26T02:40:01.319Z,2.20
2022-09-26T02:42:47.994Z,1.95
2022-09-26T02:45:33.781Z,2.40
2022-09-26T02:48:16.434Z,2.20
2022-09-26T02:51:03.936Z,2.50
2022-09-26T02:53:56.940Z,2.22
2022-09-26T02:56:57.276Z,2.50
2022-09-26T02:59:57.937Z,2.05
2022-09-26T03:02:43.643Z,1.95
2022-09-26T03:05:21.755Z,2.20
2022-09-26T03:08:05.431Z,2.30
2022-09-26T03:10:34.434Z,2.33
2022-09-26T03:13:08.991Z,1.90
2022-09-26T03:15:41.367Z,2.03
2022-09-26T03:18:13.226Z,2.05
2022-09-26T03:20:41.773Z,2.13
2022-09-26T03:23:11.577Z,2.13
2022-09-26T03:25:39.695Z,2.20
2022-09-26T03:28:12.618Z,2.20
2022-09-26T03:30:40.693Z,2.10
2022-09-26T03:33:28.505Z,2.25
2022-09-26T03:35:56.422Z,2.35
2022-09-26T03:38:26.944Z,2.05
2022-09-26T03:41:04.447Z,2.45
2022-09-26T03:43:46.968Z,2.20
2022-09-26T03:46:16.075Z,2.10
2022-09-26T03:48:43.916Z,2.00
2022-09-26T03:51:15.253Z,2.60
2022-09-26T03:53:47.478Z,2.03
2022-09-26T03:56:29.857Z,2.20
2022-09-26T03:58:57.457Z,2.10
2022-09-26T04:01:25.107Z,2.30
2022-09-26T04:03:52.670Z,2.35
2022-09-26T04:06:21.254Z,2.38
2022-09-26T04:08:52.039Z,2.20
2022-09-26T04:11:23.238Z,2.28
2022-09-26T04:13:53.549Z,2.50
2022-09-26T04:16:24.548Z,2.20
2022-09-26T04:19:02.119Z,2.47
2022-09-26T04:21:30.055Z,2.05
2022-09-26T04:23:59.512Z,2.35
2022-09-26T04:26:27.262Z,2.30
2022-09-26T04:28:57.010Z,2.33
2022-09-26T04:31:37.108Z,2.08
2022-09-26T04:34:11.888Z,2.05
2022-09-26T04:36:39.421Z,2.35
2022-09-26T04:39:07.059Z,2.75
2022-09-26T04:41:36.986Z,2.20
2022-09-26T04:44:04.375Z,2.78
2022-09-26T04:46:32.656Z,2.92
2022-09-26T04:49:02.266Z,3.50
2022-09-26T04:51:32.926Z,3.03
2022-09-26T04:54:00.398Z,3.05
2022-09-26T04:56:30.512Z,3.85
2022-09-26T04:58:59.662Z,3.10
2022-09-26T05:01:34.421Z,3.13
2022-09-26T05:04:07.591Z,2.70
2022-09-26T05:06:34.961Z,2.78
2022-09-26T05:09:04.644Z,2.70
2022-09-26T05:11:51.078Z,2.40
2022-09-26T05:14:18.698Z,2.92
2022-09-26T05:16:47.672Z,3.08
2022-09-26T05:19:16.797Z,2.85
2022-09-26T05:22:03.131Z,2.80
2022-09-26T05:25:04.671Z,2.85
2022-09-26T05:27:32.340Z,3.10
2022-09-26T05:30:00.261Z,2.65
2022-09-26T05:32:29.272Z,2.60
2022-09-26T05:34:58.001Z,2.67
2022-09-26T05:37:28.426Z,2.10
2022-09-26T05:40:14.153Z,2.78
2022-09-26T05:42:47.665Z,3.08
2022-09-26T05:45:16.025Z,3.65
2022-09-26T05:47:44.144Z,3.70
2022-09-26T05:50:12.108Z,4.20
2022-09-26T05:52:40.592Z,4.70
2022-09-26T05:55:15.135Z,3.43
2022-09-26T05:58:01.250Z,4.20
2022-09-26T06:00:48.955Z,3.67
2022-09-26T06:03:16.968Z,3.83
2022-09-26T06:05:55.086Z,3.65
2022-09-26T06:08:39.030Z,3.22
2022-09-26T06:11:31.673Z,2.65
2022-09-26T06:14:01.192Z,3.15
2022-09-26T06:16:29.871Z,2.55
2022-09-26T06:18:57.252Z,2.92
2022-09-26T06:21:25.161Z,2.88
2022-09-26T06:23:59.709Z,3.05
2022-09-26T06:26:29.817Z,2.40
2022-09-26T06:29:00.577Z,2.90
2022-09-26T06:31:30.502Z,2.90
2022-09-26T06:34:12.346Z,3.53
2022-09-26T06:39:23.171Z,3.13
2022-09-26T06:41:51.822Z,2.92
2022-09-26T06:44:36.034Z,3.15
2022-09-26T06:47:30.377Z,3.13
2022-09-26T06:50:26.717Z,3.08
2022-09-26T06:52:57.321Z,3.00
2022-09-26T06:55:25.620Z,3.25
2022-09-26T06:57:54.222Z,2.78
2022-09-26T07:00:26.076Z,3.40
2022-09-26T07:03:05.367Z,3.58
2022-09-26T07:05:48.650Z,3.58
2022-09-26T07:08:17.196Z,3.63
2022-09-26T07:10:44.815Z,3.40
2022-09-26T07:13:25.154Z,2.85
2022-09-26T07:16:08.233Z,3.55
2022-09-26T07:18:56.468Z,3.30
2022-09-26T07:21:35.813Z,3.40
2022-09-26T07:24:09.040Z,2.95
2022-09-26T07:26:36.924Z,2.70
2022-09-26T07:29:04.755Z,2.78
2022-09-26T07:31:32.360Z,4.00
2022-09-26T07:34:25.327Z,3.08
2022-09-26T07:36:53.198Z,3.60
2022-09-26T07:39:20.842Z,3.63
2022-09-26T07:41:50.039Z,4.70
2022-09-26T07:47:27.656Z,5.60
2022-09-26T07:50:14.756Z,4.63
2022-09-26T07:52:49.640Z,5.22
2022-09-26T07:55:28.692Z,4.35
2022-09-26T07:58:26.487Z,4.35
2022-09-26T08:01:16.861Z,4.53
2022-09-26T08:04:00.101Z,3.67
2022-09-26T08:06:35.333Z,3.55
2022-09-26T08:09:06.751Z,3.33
2022-09-26T08:11:53.464Z,4.00
2022-09-26T08:14:49.107Z,3.67
2022-09-26T08:17:35.743Z,3.80
2022-09-26T08:20:03.780Z,3.13
2022-09-26T08:22:31.648Z,2.28
2022-09-26T08:25:00.559Z,2.10
2022-09-26T08:27:37.084Z,2.17
2022-09-26T08:30:04.961Z,2.90
2022-09-26T08:32:32.591Z,3.28
2022-09-26T08:35:00.459Z,4.15
2022-09-26T08:37:46.380Z,4.40
2022-09-26T08:40:44.287Z,2.95
2022-09-26T08:43:56.645Z,3.80
2022-09-26T08:47:06.127Z,3.50
2022-09-26T08:50:01.853Z,3.55
2022-09-26T08:52:34.056Z,3.45
2022-09-26T08:55:14.210Z,4.05
2022-09-26T08:57:46.763Z,4.47
2022-09-26T09:00:19.687Z,3.83
2022-09-26T09:03:20.588Z,4.32
2022-09-26T09:06:04.236Z,4.05
2022-09-26T09:08:42.115Z,4.18
2022-09-26T09:11:59.236Z,3.47
2022-09-26T09:14:26.709Z,4.40
2022-09-26T09:17:32.344Z,4.80
2022-09-26T09:20:21.511Z,4.20
2022-09-26T09:23:17.604Z,4.15
2022-09-26T09:25:54.597Z,3.65
2022-09-26T09:29:04.619Z,2.97
2022-09-26T09:31:37.243Z,3.72
2022-09-26T09:34:39.655Z,3.60
2022-09-26T09:37:49.280Z,3.70
2022-09-26T09:40:48.440Z,3.58
2022-09-26T09:43:27.385Z,3.80
2022-09-26T09:46:03.101Z,4.35
2022-09-26T09:48:30.895Z,3.78
2022-09-26T09:51:00.744Z,4.18
2022-09-26T09:53:57.830Z,4.03
2022-09-26T09:56:43.485Z,4.30
2022-09-26T09:59:45.168Z,4.00
2022-09-26T10:02:37.709Z,4.40
2022-09-26T10:05:43.029Z,4.60
2022-09-26T10:08:14.785Z,3.90
2022-09-26T10:11:29.559Z,4.72
2022-09-26T10:14:03.560Z,3.75
2022-09-26T10:17:12.313Z,3.53
2022-09-26T10:19:45.350Z,3.45
2022-09-26T10:22:45.228Z,3.20
2022-09-26T10:25:26.583Z,3.53
2022-09-26T10:27:57.343Z,3.55
2022-09-26T10:30:34.435Z,3.72
2022-09-26T10:33:24.664Z,3.05
2022-09-26T10:36:05.149Z,3.15
2022-09-26T10:38:55.205Z,4.18
2022-09-26T10:41:25.375Z,4.22
2022-09-26T10:43:57.827Z,4.07
2022-09-26T10:46:46.893Z,4.35
2022-09-26T10:50:06.359Z,4.57
2022-09-26T10:52:51.806Z,4.72
2022-09-26T10:55:29.782Z,5.13
2022-09-26T10:58:02.147Z,5.90
2022-09-26T11:00:40.394Z,5.25
2022-09-26T11:03:18.092Z,5.07
2022-09-26T11:06:06.103Z,5.95
2022-09-26T11:08:38.650Z,5.13
2022-09-26T11:11:25.190Z,6.05
2022-09-26T11:13:56.533Z,5.50
2022-09-26T11:16:24.294Z,6.75
2022-09-26T11:19:09.874Z,5.22
2022-09-26T11:21:44.069Z,5.88
2022-09-26T11:24:25.919Z,5.10
2022-09-26T11:27:24.050Z,6.00
2022-09-26T11:30:21.097Z,6.32
2022-09-26T11:33:00.692Z,6.10
2022-09-26T11:36:23.148Z,7.75
2022-09-26T11:38:58.044Z,8.82
2022-09-26T11:41:38.643Z,9.68
2022-09-26T11:44:21.279Z,10.57
2022-09-26T11:47:38.811Z,11.02
2022-09-26T11:50:40.293Z,11.88
2022-09-26T11:53:45.788Z,11.55
2022-09-26T11:56:23.306Z,11.85
2022-09-26T11:59:20.108Z,12.05
2022-09-26T12:02:18.876Z,11.20
2022-09-26T12:05:13.991Z,11.30
2022-09-26T12:07:47.265Z,12.48
2022-09-26T12:10:25.506Z,9.80
2022-09-26T12:13:03.595Z,11.10
2022-09-26T12:15:42.414Z,9.30
2022-09-26T12:18:24.542Z,9.52
2022-09-26T12:21:01.616Z,10.18
2022-09-26T12:23:45.112Z,11.40
2022-09-26T12:26:34.992Z,12.20
2022-09-26T12:29:41.850Z,13.10
2022-09-26T12:32:51.611Z,13.75
2022-09-26T12:35:28.633Z,14.05
2022-09-26T12:38:38.291Z,14.48
2022-09-26T12:41:36.070Z,13.90
2022-09-26T12:44:26.356Z,14.02
2022-09-26T12:47:17.839Z,14.20
2022-09-26T12:50:00.600Z,13.63
2022-09-26T12:52:56.797Z,11.73
2022-09-26T12:55:37.822Z,12.10
2022-09-26T12:58:22.817Z,12.00
2022-09-26T13:01:00.388Z,12.33
2022-09-26T13:03:56.998Z,12.00
2022-09-26T13:06:57.326Z,12.00
2022-09-26T13:09:38.871Z,12.30
2022-09-26T13:12:26.199Z,11.27
2022-09-26T13:15:02.343Z,10.32
2022-09-26T13:17:45.502Z,10.30
2022-09-26T13:20:16.348Z,8.68
2022-09-26T13:22:50.932Z,8.90
2022-09-26T13:25:30.677Z,9.70
2022-09-26T13:28:30.560Z,8.65
2022-09-26T13:31:04.744Z,9.30
2022-09-26T13:33:35.488Z,8.85
2022-09-26T13:36:04.681Z,8.82
2022-09-26T13:38:47.563Z,7.88
2022-09-26T13:41:45.676Z,8.88
2022-09-26T13:44:23.417Z,8.25
2022-09-26T13:47:23.098Z,8.63
2022-09-26T13:50:18.812Z,9.38
2022-09-26T13:53:21.511Z,9.10
2022-09-26T13:56:27.968Z,8.82
2022-09-26T13:59:24.521Z,8.07
2022-09-26T14:02:16.642Z,8.57
2022-09-26T14:04:45.712Z,10.07
2022-09-26T14:07:32.249Z,10.55
2022-09-26T14:10:02.495Z,11.45
2022-09-26T14:12:51.632Z,11.15
2022-09-26T14:15:44.728Z,11.75
2022-09-26T14:18:39.142Z,11.82
2022-09-26T14:21:23.438Z,10.77
2022-09-26T14:24:19.365Z,9.20
2022-09-26T14:26:59.772Z,9.10
2022-09-26T14:29:29.995Z,8.07
2022-09-26T14:32:04.573Z,8.38
2022-09-26T14:34:44.105Z,6.93
2022-09-26T14:37:26.294Z,7.78
2022-09-26T14:40:21.267Z,8.20
2022-09-26T14:42:57.550Z,8.60
2022-09-26T14:45:33.002Z,8.35
2022-09-26T14:51:05.362Z,8.13
2022-09-26T14:53:41.132Z,9.65
2022-09-26T14:56:29.575Z,7.93
2022-09-26T14:59:38.529Z,7.63
2022-09-26T15:02:15.423Z,7.15
2022-09-26T15:04:45.053Z,7.88
2022-09-26T15:07:26.269Z,7.70
2022-09-26T15:10:19.184Z,7.43
2022-09-26T15:13:20.153Z,7.65
2022-09-26T15:16:11.385Z,8.63
2022-09-26T15:19:05.053Z,9.25
2022-09-26T15:21:41.293Z,9.80
2022-09-26T15:24:33.598Z,10.38
2022-09-26T15:27:09.719Z,10.05
2022-09-26T15:29:43.979Z,11.23
2022-09-26T15:32:25.861Z,10.05
2022-09-26T15:34:54.401Z,11.25
2022-09-26T15:37:23.382Z,10.95
2022-09-26T15:39:51.800Z,10.43
2022-09-26T15:42:46.898Z,9.65
2022-09-26T15:45:27.393Z,10.25
2022-09-26T15:47:57.541Z,9.52
2022-09-26T15:50:30.702Z,9.88
2022-09-26T15:53:20.959Z,9.18
2022-09-26T15:56:00.551Z,8.75
2022-09-26T15:58:44.136Z,7.88
2022-09-26T16:01:17.526Z,6.78
2022-09-26T16:03:54.232Z,7.07
2022-09-26T16:06:24.227Z,7.15
2022-09-26T16:09:04.768Z,6.68
2022-09-26T16:11:33.709Z,6.93
2022-09-26T16:14:01.371Z,6.25
2022-09-26T16:16:32.925Z,6.85
2022-09-26T16:19:04.399Z,6.10
2022-09-26T16:21:36.697Z,4.93
2022-09-26T16:24:30.581Z,4.60
2022-09-26T16:26:58.129Z,4.50
2022-09-26T16:29:36.220Z,4.10
2022-09-26T16:32:05.061Z,3.95
2022-09-26T16:34:32.854Z,3.72
2022-09-26T16:37:02.308Z,4.15
2022-09-26T16:39:31.526Z,4.47
2022-09-26T16:42:15.600Z,3.90
2022-09-26T16:44:52.065Z,4.20
2022-09-26T16:47:43.217Z,4.53
2022-09-26T16:50:36.301Z,4.38
2022-09-26T16:53:10.275Z,4.28
2022-09-26T16:55:37.837Z,4.45
2022-09-26T16:58:05.933Z,4.82
2022-09-26T17:00:53.590Z,4.95
2022-09-26T17:03:24.095Z,5.00
2022-09-26T17:05:52.812Z,6.05
2022-09-26T17:08:20.361Z,4.72
2022-09-26T17:10:48.134Z,4.60
2022-09-26T17:13:21.912Z,4.75
2022-09-26T17:15:57.686Z,4.75
2022-09-26T17:18:32.633Z,4.50
2022-09-26T17:21:00.572Z,4.90
2022-09-26T17:23:40.342Z,4.13
2022-09-26T17:26:12.636Z,4.03
2022-09-26T17:28:44.955Z,3.85
2022-09-26T17:31:20.246Z,3.78
2022-09-26T17:33:49.996Z,4.18
2022-09-26T17:36:23.532Z,3.42
2022-09-26T17:38:51.167Z,4.03
2022-09-26T17:41:18.593Z,3.55
2022-09-26T17:43:45.986Z,3.63
2022-09-26T17:46:16.171Z,4.05
2022-09-26T17:48:44.963Z,3.15
2022-09-26T17:51:14.614Z,2.65
2022-09-26T17:53:50.467Z,2.85
2022-09-26T17:56:21.494Z,2.83
2022-09-26T17:58:49.779Z,2.45
2022-09-26T18:01:30.474Z,2.80
2022-09-26T18:04:01.467Z,3.10
2022-09-26T18:06:31.985Z,2.90
2022-09-26T18:09:05.755Z,2.53
2022-09-26T18:11:34.912Z,3.05
2022-09-26T18:14:04.365Z,2.97
2022-09-26T18:16:31.749Z,3.00
2022-09-26T18:19:02.140Z,3.00
2022-09-26T18:21:32.043Z,2.80
2022-09-26T18:24:02.527Z,3.17
2022-09-26T18:26:47.616Z,2.67
2022-09-26T18:29:30.378Z,2.73
2022-09-26T18:31:59.528Z,2.95
2022-09-26T18:34:26.919Z,2.45
2022-09-26T18:36:57.644Z,3.47
2022-09-26T18:39:25.405Z,3.00
2022-09-26T18:42:02.477Z,2.78
2022-09-26T18:44:35.345Z,3.00
2022-09-26T18:47:13.520Z,3.40
2022-09-26T18:49:41.573Z,2.85
2022-09-26T18:52:16.881Z,2.92
2022-09-26T18:54:46.262Z,3.35
2022-09-26T18:57:34.508Z,3.13
2022-09-26T19:00:02.881Z,2.90
2022-09-26T19:02:38.679Z,3.58
2022-09-26T19:05:08.251Z,3.35
2022-09-26T19:07:35.928Z,4.07
2022-09-26T19:10:03.456Z,4.32
2022-09-26T19:12:31.826Z,4.28
2022-09-26T19:15:00.208Z,4.57
2022-09-26T19:17:27.582Z,4.22
2022-09-26T19:19:55.028Z,4.47
2022-09-26T19:22:22.382Z,4.05
2022-09-26T19:24:54.215Z,4.32
2022-09-26T19:27:30.193Z,3.40
2022-09-26T19:30:04.579Z,3.95
2022-09-26T19:32:44.701Z,4.72
2022-09-26T19:35:24.847Z,4.25
2022-09-26T19:37:52.505Z,4.13
2022-09-26T19:40:21.831Z,3.55
2022-09-26T19:42:49.352Z,4.45
2022-09-26T19:45:17.625Z,4.60
2022-09-26T19:47:53.455Z,4.90
2022-09-26T19:50:24.250Z,5.55
2022-09-26T19:52:56.894Z,5.30
2022-09-26T19:55:33.288Z,5.35
2022-09-26T19:58:07.955Z,4.82
2022-09-26T20:00:41.685Z,5.35
2022-09-26T20:03:25.529Z,6.10
2022-09-26T20:05:53.333Z,7.00
2022-09-26T20:08:23.718Z,6.07
2022-09-26T20:10:51.900Z,4.65
2022-09-26T20:13:19.309Z,5.05
2022-09-26T20:15:48.149Z,4.55
2022-09-26T20:18:22.170Z,4.43
2022-09-26T20:20:55.095Z,3.90
2022-09-26T20:23:27.545Z,3.25
2022-09-26T20:25:55.882Z,3.10
2022-09-26T20:28:23.455Z,3.00
2022-09-26T20:30:55.734Z,3.65
2022-09-26T20:33:24.548Z,3.40
2022-09-26T20:36:01.702Z,3.03
2022-09-26T20:39:00.814Z,2.95
2022-09-26T20:41:40.517Z,2.90
2022-09-26T20:44:22.431Z,1.95
2022-09-26T20:46:52.897Z,1.83
2022-09-26T20:49:25.798Z,1.70
2022-09-26T20:51:53.822Z,1.63
2022-09-26T20:54:30.546Z,1.48
2022-09-26T20:56:58.919Z,1.50
2022-09-26T20:59:26.831Z,1.90
2022-09-26T21:01:57.153Z,1.55
2022-09-26T21:04:33.629Z,1.67
2022-09-26T21:07:01.048Z,1.65
2022-09-26T21:09:28.549Z,1.35
2022-09-26T21:11:55.868Z,2.90
2022-09-26T21:14:23.304Z,1.48
2022-09-26T21:16:54.651Z,1.77
2022-09-26T21:19:24.589Z,1.10
2022-09-26T21:22:03.895Z,1.70
2022-09-26T21:24:42.110Z,1.35
2022-09-26T21:27:14.124Z,1.50
2022-09-26T21:29:42.249Z,1.70
2022-09-26T21:32:17.332Z,1.35
2022-09-26T21:34:55.078Z,1.58
2022-09-26T21:37:22.561Z,1.63
2022-09-26T21:39:50.339Z,1.92
2022-09-26T21:42:17.819Z,1.70
2022-09-26T21:44:51.551Z,1.65
2022-09-26T21:47:18.877Z,1.95
2022-09-26T21:49:46.964Z,1.60
2022-09-26T21:52:20.037Z,2.03
2022-09-26T21:54:47.735Z,1.83
2022-09-26T21:57:23.349Z,1.60
2022-09-26T21:59:52.491Z,1.63
2022-09-26T22:02:20.873Z,1.65
2022-09-26T22:04:48.164Z,1.60
2022-09-26T22:07:15.531Z,1.80
2022-09-26T22:09:42.822Z,1.55
2022-09-26T22:12:10.385Z,1.42
2022-09-26T22:14:37.674Z,1.73
2022-09-26T22:17:05.062Z,1.92
2022-09-26T22:19:33.767Z,1.60
2022-09-26T22:22:02.566Z,2.00
2022-09-26T22:24:30.578Z,1.90
2022-09-26T22:26:57.904Z,1.98
2022-09-26T22:29:26.065Z,1.60
2022-09-26T22:31:53.940Z,1.63
2022-09-26T22:34:28.946Z,1.65
2022-09-26T22:36:58.416Z,1.50
2022-09-26T22:39:25.932Z,1.10
2022-09-26T22:41:54.971Z,1.50
2022-09-26T22:44:22.543Z,1.60
2022-09-26T22:46:49.961Z,1.38
2022-09-26T22:49:17.455Z,1.27
2022-09-26T22:51:44.847Z,1.33
2022-09-26T22:54:29.877Z,1.38
2022-09-26T22:57:02.850Z,1.27
2022-09-26T22:59:30.220Z,1.40
2022-09-26T23:01:57.822Z,1.10
2022-09-26T23:04:45.266Z,0.90
2022-09-26T23:07:22.604Z,1.15
2022-09-26T23:09:50.135Z,1.13
2022-09-26T23:12:27.565Z,1.15
2022-09-26T23:15:04.983Z,1.08
2022-09-26T23:17:33.305Z,1.10
2022-09-26T23:20:02.796Z,0.90
2022-09-26T23:22:30.172Z,1.10
2022-09-26T23:24:59.811Z,1.10
2022-09-26T23:27:27.423Z,1.30
2022-09-26T23:29:55.625Z,1.17
2022-09-26T23:32:23.113Z,1.23
2022-09-26T23:34:53.489Z,1.35
2022-09-26T23:37:20.744Z,1.20
2022-09-26T23:39:48.222Z,1.30
2022-09-26T23:42:15.622Z,1.08
2022-09-26T23:44:42.949Z,1.20
2022-09-26T23:47:10.405Z,1.60
2022-09-26T23:49:37.771Z,1.42
2022-09-26T23:52:05.135Z,1.70
2022-09-26T23:54:32.402Z,1.42
2022-09-26T23:57:00.439Z,1.10
2022-09-26T23:59:27.892Z,1.23
